Time;durP1;ratioP1;P1;durP2;ratioP2;P2;SDS_P1;SDS_P2;PMS_P1;PMS_P2;Temp;Humidity;BMP_temperature;BMP_pressure;BME280_temperature;BME280_humidity;BME280_pressure;Samples;Min_cycle;Max_cycle;Signal;HPM_P1;HPM_P2
2022/02/08 00:02:25;;;;;;;;;69.50;53.50;;;;;6.55;62.86;102482.75;5058738;28;46848;-60
2022/02/08 00:04:51;;;;;;;;;64.25;47.50;;;;;6.55;62.65;102480.13;5076881;28;45516;-61
2022/02/08 00:07:16;;;;;;;;;65.00;51.00;;;;;6.57;62.56;102487.94;5076406;28;60697;-60
2022/02/08 00:09:41;;;;;;;;;65.50;48.00;;;;;6.58;62.64;102484.41;5075163;28;62164;-60
2022/02/08 00:12:08;;;;;;;;;59.25;47.00;;;;;6.63;62.59;102483.28;5076917;28;45510;-60
2022/02/08 00:14:33;;;;;;;;;69.25;51.00;;;;;6.63;62.51;102478.06;5076952;28;45496;-61
2022/02/08 00:16:59;;;;;;;;;63.25;49.00;;;;;6.68;62.52;102478.75;5077071;28;45814;-61
2022/02/08 00:19:24;;;;;;;;;63.00;48.50;;;;;6.70;62.58;102477.81;5076984;28;45581;-60
2022/02/08 00:21:49;;;;;;;;;63.00;49.50;;;;;6.72;62.60;102470.78;5075984;28;70188;-60
2022/02/08 00:24:15;;;;;;;;;61.25;47.00;;;;;6.74;62.56;102474.19;5076235;28;59189;-60
2022/02/08 00:26:40;;;;;;;;;58.00;45.75;;;;;6.75;62.51;102476.72;5075911;28;64738;-60
2022/02/08 00:29:05;;;;;;;;;57.50;47.00;;;;;6.77;62.60;102472.28;5075683;27;61967;-60
2022/02/08 00:31:31;;;;;;;;;55.75;44.25;;;;;6.79;62.52;102462.63;5076626;28;45912;-60
2022/02/08 00:33:56;;;;;;;;;60.25;46.75;;;;;6.80;62.80;102463.47;5075761;28;67676;-59
2022/02/08 00:36:22;;;;;;;;;61.00;48.00;;;;;6.81;62.54;102459.94;5075845;28;64494;-60
2022/02/08 00:38:49;;;;;;;;;60.25;46.00;;;;;6.81;62.67;102462.56;5076537;28;45248;-60
2022/02/08 00:41:14;;;;;;;;;63.00;47.00;;;;;6.83;62.83;102464.19;5076561;28;47396;-60
2022/02/08 00:43:51;;;;;;;;;66.00;49.25;;;;;6.88;62.88;102473.59;5075689;28;65505;-60
2022/02/08 00:46:24;;;;;;;;;60.25;46.50;;;;;6.91;62.73;102469.06;5060052;28;45407;-61
2022/02/08 00:48:57;;;;;;;;;62.00;47.75;;;;;6.95;62.75;102469.81;5076528;28;45242;-61
2022/02/08 00:51:25;;;;;;;;;60.00;46.75;;;;;6.97;62.81;102470.59;5076447;28;45429;-61
2022/02/08 00:53:50;;;;;;;;;61.75;48.00;;;;;6.98;63.01;102467.91;5057767;28;45764;-60
2022/02/08 00:56:15;;;;;;;;;59.25;46.75;;;;;7.02;62.98;102465.16;5075413;28;64581;-60
2022/02/08 00:58:41;;;;;;;;;60.75;47.00;;;;;7.04;63.03;102463.34;5076341;28;45388;-60
2022/02/08 01:01:06;;;;;;;;;61.75;48.00;;;;;7.06;62.93;102465.00;5076068;28;45887;-60
2022/02/08 01:03:32;;;;;;;;;59.75;47.75;;;;;7.08;62.74;102471.00;5075695;28;45367;-61
2022/02/08 01:06:07;;;;;;;;;59.25;46.25;;;;;7.10;62.92;102470.94;5075657;28;54801;-60
2022/02/08 01:08:35;;;;;;;;;65.25;47.75;;;;;7.10;62.84;102471.78;5057865;28;45409;-60
2022/02/08 01:11:00;;;;;;;;;57.50;44.00;;;;;7.09;62.81;102477.06;5075998;28;45445;-60
2022/02/08 01:13:26;;;;;;;;;62.25;45.50;;;;;7.09;62.83;102475.31;5076056;28;45445;-60
2022/02/08 01:15:54;;;;;;;;;61.75;47.25;;;;;7.10;62.96;102478.78;5075529;28;54462;-60
2022/02/08 01:18:19;;;;;;;;;59.25;42.75;;;;;7.12;63.00;102484.78;5076160;28;45353;-60
2022/02/08 01:20:44;;;;;;;;;51.50;40.00;;;;;7.11;62.93;102475.25;5076762;28;65114;-61
2022/02/08 01:23:10;;;;;;;;;43.25;36.00;;;;;7.12;63.14;102482.16;5079563;28;45277;-60
2022/02/08 01:25:58;;;;;;;;;53.75;40.00;;;;;7.13;63.08;102476.03;5078565;28;45398;-60
2022/02/08 01:36:09;;;;;;;;;36.25;32.50;;;;;7.19;63.35;102475.78;5079345;28;45307;-60
2022/02/08 01:38:35;;;;;;;;;41.50;33.50;;;;;7.21;63.32;102483.53;5061012;28;45355;-60
2022/02/08 01:46:50;;;;;;;;;41.25;34.00;;;;;7.31;63.12;102481.38;5079257;28;45258;-60
2022/02/08 01:49:31;;;;;;;;;41.25;36.25;;;;;7.34;62.95;102476.03;5079023;28;45438;-60
2022/02/08 01:51:57;;;;;;;;;42.25;35.50;;;;;7.35;62.79;102482.97;5079060;28;47036;-60
2022/02/08 01:54:22;;;;;;;;;47.00;36.75;;;;;7.35;62.78;102482.97;5079016;28;45384;-60
2022/02/08 01:56:48;;;;;;;;;43.25;35.00;;;;;7.36;62.84;102482.03;5078238;28;61738;-60
2022/02/08 01:59:14;;;;;;;;;38.25;34.25;;;;;7.37;62.79;102481.13;5079073;28;45373;-61
2022/02/08 02:01:39;;;;;;;;;35.75;31.50;;;;;7.39;62.99;102482.75;5079013;28;45406;-60
2022/02/08 02:04:05;;;;;;;;;42.50;34.00;;;;;7.43;63.01;102486.06;5078092;28;70154;-60
2022/02/08 02:06:30;;;;;;;;;37.75;33.50;;;;;7.46;63.16;102487.72;5078022;28;68691;-60
2022/02/08 02:08:56;;;;;;;;;23.75;19.00;;;;;7.48;63.03;102488.50;5079088;28;45368;-60
2022/02/08 02:11:21;;;;;;;;;24.50;20.00;;;;;7.51;63.05;102481.34;5078516;28;53566;-60
2022/02/08 02:13:49;;;;;;;;;20.50;19.00;;;;;7.56;62.92;102487.22;5078516;28;50137;-60
2022/02/08 02:16:20;;;;;;;;;22.50;18.25;;;;;7.60;62.89;102481.84;5078897;28;45276;-60
2022/02/08 02:18:45;;;;;;;;;22.50;19.75;;;;;7.64;62.88;102486.03;5078242;28;45406;-60
2022/02/08 02:21:11;;;;;;;;;21.50;17.50;;;;;7.68;62.72;102482.38;5078587;28;46119;-60
2022/02/08 02:23:36;;;;;;;;;21.50;18.00;;;;;7.71;62.70;102472.59;5078555;28;45421;-60
2022/02/08 02:26:02;;;;;;;;;21.75;18.75;;;;;7.75;62.68;102473.31;5077460;28;67926;-60
2022/02/08 02:28:27;;;;;;;;;20.25;16.50;;;;;7.79;62.66;102480.13;5078846;28;45248;-61
2022/02/08 02:30:53;;;;;;;;;21.50;17.75;;;;;7.83;62.43;102467.72;5078327;27;45859;-61
2022/02/08 02:33:18;;;;;;;;;19.25;15.25;;;;;7.86;62.43;102473.69;5077651;28;45195;-61
2022/02/08 02:35:45;;;;;;;;;16.75;14.50;;;;;7.90;62.29;102470.94;5078037;28;58064;-61
2022/02/08 02:38:11;;;;;;;;;21.00;18.00;;;;;7.91;62.18;102470.84;5078582;28;45593;-60
2022/02/08 02:40:40;;;;;;;;;19.00;16.75;;;;;7.94;62.25;102467.25;5077631;28;67698;-60
2022/02/08 02:43:08;;;;;;;;;21.50;17.75;;;;;7.97;61.97;102464.47;5078433;28;45249;-60
2022/02/08 02:45:33;;;;;;;;;20.25;16.25;;;;;7.98;61.96;102474.03;5060281;28;45330;-61
2022/02/08 02:47:59;;;;;;;;;19.00;17.25;;;;;7.98;61.97;102466.16;5078272;28;46400;-60
2022/02/08 02:50:25;;;;;;;;;22.25;17.75;;;;;8.00;61.97;102474.81;5077194;28;71140;-60
2022/02/08 02:52:50;;;;;;;;;18.00;13.00;;;;;8.00;61.91;102467.81;5078360;28;45351;-60
2022/02/08 02:55:16;;;;;;;;;21.25;17.50;;;;;8.02;62.01;102465.09;5078444;28;45809;-60
2022/02/08 02:57:47;;;;;;;;;18.00;16.00;;;;;8.05;61.98;102469.38;5078353;28;45427;-61
2022/02/08 03:00:25;;;;;;;;;17.50;14.50;;;;;8.06;62.05;102471.06;5078142;28;45351;-61
2022/02/08 03:02:57;;;;;;;;;19.25;15.00;;;;;8.07;61.92;102468.38;5060032;28;45812;-61
2022/02/08 03:05:33;;;;;;;;;15.75;13.25;;;;;8.11;62.04;102466.47;5078116;28;45372;-60
2022/02/08 03:18:54;;;;;;;;;18.00;13.00;;;;;8.19;61.67;102446.00;5078025;28;45414;-61
2022/02/08 03:21:20;;;;;;;;;16.50;13.75;;;;;8.21;61.61;102443.31;5076367;28;74575;-60
2022/02/08 03:23:45;;;;;;;;;15.50;14.00;;;;;8.22;61.57;102447.63;5077590;28;45418;-61
2022/02/08 03:26:10;;;;;;;;;15.75;11.25;;;;;8.21;61.48;102446.78;5076601;28;67793;-60
2022/02/08 03:28:36;;;;;;;;;16.50;14.00;;;;;8.22;61.53;102450.25;5077609;28;45387;-61
2022/02/08 03:31:01;;;;;;;;;15.00;12.50;;;;;8.22;61.60;102451.06;5077270;27;45925;-60
2022/02/08 03:33:27;;;;;;;;;15.00;13.00;;;;;8.23;61.65;102452.78;5077601;28;45351;-60
2022/02/08 03:35:54;;;;;;;;;13.00;12.25;;;;;8.23;61.32;102454.56;5077607;28;45522;-60
2022/02/08 03:38:27;;;;;;;;;22.00;14.50;;;;;8.22;61.38;102464.16;5059247;28;45379;-60
2022/02/08 03:40:53;;;;;;;;;14.75;13.50;;;;;8.22;61.40;102472.03;5076699;28;45342;-60
2022/02/08 03:45:52;;;;;;;;;14.50;11.00;;;;;8.21;61.45;102465.13;5077253;28;45427;-60
2022/02/08 03:48:21;;;;;;;;;14.50;12.50;;;;;8.24;61.54;102461.50;5077533;28;45374;-60
2022/02/08 03:50:52;;;;;;;;;15.75;12.00;;;;;8.24;61.61;102469.34;5077076;28;47259;-60
2022/02/08 03:53:17;;;;;;;;;15.75;13.50;;;;;8.26;61.46;102472.75;5077237;28;45242;-61
2022/02/08 03:55:43;;;;;;;;;16.00;12.00;;;;;8.27;61.57;102469.19;5077145;28;45189;-60
2022/02/08 03:58:09;;;;;;;;;13.00;11.00;;;;;8.28;61.88;102470.91;5077151;28;45219;-60
2022/02/08 04:00:44;;;;;;;;;13.75;10.75;;;;;8.29;61.83;102469.97;5076962;28;46016;-61
2022/02/08 04:03:10;;;;;;;;;14.75;10.50;;;;;8.30;61.83;102482.16;5058845;28;45922;-59
2022/02/08 04:05:40;;;;;;;;;16.00;13.00;;;;;8.31;61.49;102476.00;5077033;28;45413;-61
2022/02/08 04:08:09;;;;;;;;;11.75;11.75;;;;;8.32;61.74;102475.06;5077078;28;45165;-60
2022/02/08 04:10:35;;;;;;;;;14.00;12.00;;;;;8.34;61.71;102477.59;5076785;28;46082;-60
2022/02/08 04:34:19;;;;;;;;;11.75;9.25;;;;;8.41;61.77;102479.88;5076740;28;45366;-60
2022/02/08 04:42:12;;;;;;;;;12.75;11.00;;;;;8.40;61.89;102480.78;5076458;28;45401;-60
2022/02/08 04:47:35;;;;;;;;;12.25;11.00;;;;;8.39;62.23;102476.47;5056445;28;45521;-61
2022/02/08 04:50:00;;;;;;;;;13.25;11.25;;;;;8.41;62.05;102476.38;5076462;28;45240;-61
2022/02/08 04:52:27;;;;;;;;;14.00;11.00;;;;;8.43;62.00;102474.53;5075598;28;65810;-60
2022/02/08 04:57:32;;;;;;;;;11.50;10.00;;;;;8.45;62.02;102483.19;5076486;28;45378;-61
2022/02/08 05:00:37;;;;;;;;;11.75;11.75;;;;;8.44;61.94;102473.63;5076460;28;45236;-61
2022/02/08 05:35:44;;;;;;;;;12.00;9.75;;;;;8.48;62.21;102467.31;5075985;28;45433;-61
2022/02/08 05:48:52;;;;;;;;;13.25;10.75;;;;;8.47;62.61;102468.25;5075594;28;45370;-60
2022/02/08 05:51:21;;;;;;;;;13.75;12.00;;;;;8.47;62.48;102470.84;5076062;28;45295;-61
2022/02/08 05:53:46;;;;;;;;;12.00;11.00;;;;;8.48;62.78;102466.47;5075982;28;45553;-61
2022/02/08 05:56:14;;;;;;;;;16.75;10.75;;;;;8.48;62.76;102463.88;5074489;28;73138;-61
2022/02/08 05:58:43;;;;;;;;;14.00;11.75;;;;;8.49;62.95;102468.19;5057501;28;45767;-61
2022/02/08 06:01:09;;;;;;;;;10.75;9.75;;;;;8.49;62.84;102473.41;5075523;28;45347;-60
2022/02/08 06:03:34;;;;;;;;;8.50;8.25;;;;;8.50;62.73;102468.13;5074950;28;45314;-60
2022/02/08 06:06:00;;;;;;;;;10.75;9.25;;;;;8.49;62.65;102465.56;5075355;28;45350;-61
2022/02/08 06:08:25;;;;;;;;;11.75;9.00;;;;;8.50;62.66;102469.88;5077899;28;45367;-61
2022/02/08 06:10:58;;;;;;;;;19.25;12.25;;;;;8.49;62.41;102468.19;5077955;28;67989;-61
2022/02/08 06:13:25;;;;;;;;;14.75;11.25;;;;;8.49;62.54;102468.19;5078950;28;45373;-61
2022/02/08 06:15:59;;;;;;;;;13.50;9.75;;;;;8.50;62.59;102469.88;5078682;28;45955;-60
2022/02/08 06:18:26;;;;;;;;;10.00;8.25;;;;;8.50;62.52;102472.50;5078845;28;45894;-60
2022/02/08 06:20:51;;;;;;;;;9.00;8.25;;;;;8.48;62.44;102464.69;5060441;28;45367;-61
2022/02/08 06:23:17;;;;;;;;;13.00;11.50;;;;;8.48;62.50;102463.88;5078194;28;59570;-61
2022/02/08 06:25:42;;;;;;;;;11.00;10.25;;;;;8.48;62.74;102466.47;5077467;28;75569;-60
2022/02/08 06:28:09;;;;;;;;;13.25;10.25;;;;;8.46;62.53;102462.16;5078526;28;45476;-60
2022/02/08 06:30:35;;;;;;;;;11.00;8.50;;;;;8.45;62.59;102468.31;5078656;27;45351;-61
2022/02/08 06:33:00;;;;;;;;;10.00;8.00;;;;;8.48;62.48;102466.47;5078149;28;55371;-60
2022/02/08 06:35:29;;;;;;;;;11.00;9.50;;;;;8.46;62.68;102475.25;5077868;28;45412;-61
2022/02/08 06:37:55;;;;;;;;;6.50;5.00;;;;;8.48;62.72;102479.59;5078559;28;45341;-60
2022/02/08 06:40:24;;;;;;;;;8.75;8.75;;;;;8.48;62.87;102476.97;5078889;28;45315;-61
2022/02/08 06:42:49;;;;;;;;;10.75;9.75;;;;;8.47;63.03;102483.97;5077110;28;45556;-61
2022/02/08 06:45:15;;;;;;;;;12.50;9.75;;;;;8.45;63.01;102489.28;5078335;28;46001;-61
2022/02/08 06:47:42;;;;;;;;;13.25;10.25;;;;;8.44;63.26;102487.59;5078801;28;45623;-61
2022/02/08 06:50:10;;;;;;;;;12.50;10.75;;;;;8.43;63.06;102490.25;5078570;28;45461;-60
2022/02/08 06:52:35;;;;;;;;;12.75;8.75;;;;;8.42;63.43;102478.94;5078427;28;45442;-61
2022/02/08 06:55:03;;;;;;;;;12.25;10.25;;;;;8.42;63.41;102485.94;5077303;28;75564;-61
2022/02/08 06:57:30;;;;;;;;;12.50;10.75;;;;;8.45;63.71;102493.66;5078282;28;45291;-61
2022/02/08 07:00:01;;;;;;;;;14.75;10.00;;;;;8.47;63.80;102491.81;5078368;28;45256;-61
2022/02/08 07:02:27;;;;;;;;;14.25;9.75;;;;;8.46;63.86;102498.84;5078138;28;45220;-61
2022/02/08 07:04:52;;;;;;;;;8.50;5.75;;;;;8.48;63.70;102497.91;5077594;28;60185;-61
2022/02/08 07:07:18;;;;;;;;;9.25;8.00;;;;;8.51;63.85;102498.63;5078110;28;45279;-60
2022/02/08 07:09:44;;;;;;;;;11.25;10.25;;;;;8.51;64.12;102503.88;5077381;28;64628;-60
2022/02/08 07:12:10;;;;;;;;;13.00;10.25;;;;;8.50;63.97;102504.81;5077537;28;45304;-60
2022/02/08 07:14:35;;;;;;;;;8.75;8.75;;;;;8.51;64.14;102500.41;5077898;28;45846;-60
2022/02/08 07:17:00;;;;;;;;;15.75;14.00;;;;;8.51;64.15;102503.88;5077527;28;54774;-62
2022/02/08 07:19:26;;;;;;;;;15.00;8.25;;;;;8.52;64.24;102504.72;5076664;28;64546;-60
2022/02/08 07:21:52;;;;;;;;;12.25;7.75;;;;;8.54;64.33;102502.88;5077839;28;45415;-60
2022/02/08 07:24:18;;;;;;;;;12.75;9.50;;;;;8.55;64.57;102509.81;5077498;28;46225;-61
2022/02/08 07:26:46;;;;;;;;;15.00;10.00;;;;;8.55;64.57;102521.16;5077507;28;45337;-60
2022/02/08 07:29:11;;;;;;;;;11.25;10.00;;;;;8.60;64.65;102520.91;5059170;27;45259;-61
2022/02/08 07:31:42;;;;;;;;;14.75;11.00;;;;;8.61;64.75;102526.09;5058577;28;59786;-60
2022/02/08 07:34:20;;;;;;;;;16.00;12.00;;;;;8.62;64.74;102524.31;5076868;28;46376;-61
2022/02/08 07:37:34;;;;;;;;;12.75;11.00;;;;;8.64;64.85;102529.50;5077447;28;45713;-60
2022/02/08 07:39:52;;;;;;;;;13.00;10.25;;;;;8.64;64.74;102532.94;5066407;28;45425;-60
2022/02/08 07:42:18;;;;;;;;;16.25;11.25;;;;;8.65;65.08;102521.53;5077498;28;45312;-61
2022/02/08 07:44:44;;;;;;;;;10.50;9.50;;;;;8.63;65.11;102518.16;5075913;28;70865;-60
2022/02/08 07:47:09;;;;;;;;;13.00;11.00;;;;;8.70;65.16;102522.19;5076911;28;45194;-61
2022/02/08 07:49:38;;;;;;;;;26.00;24.00;;;;;8.70;64.94;102524.78;5076147;28;62937;-61
2022/02/08 07:52:04;;;;;;;;;18.75;12.00;;;;;8.72;65.17;102527.34;5076798;28;45457;-61
2022/02/08 07:54:29;;;;;;;;;9.50;8.75;;;;;8.73;65.08;102523.81;5075088;28;45342;-61
2022/02/08 07:56:55;;;;;;;;;12.25;11.25;;;;;8.74;65.18;102520.28;5076017;28;55441;-60
2022/02/08 07:59:20;;;;;;;;;15.50;13.25;;;;;8.75;65.13;102525.41;5076588;28;46180;-61
2022/02/08 08:01:46;;;;;;;;;14.00;12.50;;;;;8.75;65.29;102522.81;5075429;28;68962;-60
2022/02/08 08:04:11;;;;;;;;;11.75;10.25;;;;;8.77;65.49;102520.09;5075939;28;45344;-61
2022/02/08 08:06:36;;;;;;;;;16.00;13.50;;;;;8.81;65.49;102508.53;5076069;28;45367;-60
2022/02/08 08:09:04;;;;;;;;;12.50;12.25;;;;;8.81;65.36;102512.94;5076152;28;53300;-61
2022/02/08 08:11:36;;;;;;;;;11.25;11.25;;;;;8.81;65.46;102516.41;5058503;28;45427;-60
2022/02/08 08:14:04;;;;;;;;;16.00;14.00;;;;;8.82;65.48;102505.00;5057898;28;46046;-60
2022/02/08 08:17:37;;;;;;;;;18.00;13.00;;;;;8.84;65.64;102510.16;5075846;28;45322;-61
2022/02/08 08:19:22;;;;;;;;;14.00;13.00;;;;;8.88;65.40;102507.31;5064953;28;45481;-60
2022/02/08 08:21:48;;;;;;;;;18.25;14.50;;;;;8.89;65.49;102502.94;5076204;28;45337;-60
2022/02/08 08:24:14;;;;;;;;;18.00;14.00;;;;;8.90;65.70;102510.69;5075790;28;45784;-60
2022/02/08 08:26:39;;;;;;;;;15.00;15.00;;;;;8.94;65.70;102510.56;5075900;28;45349;-60
2022/02/08 08:29:05;;;;;;;;;15.75;15.75;;;;;8.95;65.82;102507.88;5040989;27;45329;-60
2022/02/08 08:31:30;;;;;;;;;17.50;12.00;;;;;8.97;65.66;102513.03;5075999;28;45220;-60
2022/02/08 08:33:56;;;;;;;;;13.75;12.00;;;;;8.95;65.71;102513.13;5076244;28;46206;-60
2022/02/08 08:36:22;;;;;;;;;13.50;12.00;;;;;8.97;65.73;102511.28;5082787;27;73186;-60
2022/02/08 08:38:49;;;;;;;;;14.75;13.50;;;;;8.99;65.86;102514.66;5076294;28;45462;-60
2022/02/08 08:41:34;;;;;;;;;14.75;13.75;;;;;9.01;65.78;102511.94;5076521;28;45330;-60
2022/02/08 08:52:03;;;;;;;;;15.00;10.50;;;;;9.10;66.05;102515.88;5076331;28;45450;-60
2022/02/08 08:54:29;;;;;;;;;16.75;14.50;;;;;9.13;66.12;102510.47;5057799;28;45878;-60
2022/02/08 08:56:54;;;;;;;;;18.00;15.00;;;;;9.15;66.10;102513.88;5074979;28;70927;-60
2022/02/08 08:59:20;;;;;;;;;17.50;15.50;;;;;9.18;66.41;102513.72;5075348;28;64764;-60
2022/02/08 09:01:48;;;;;;;;;15.00;12.75;;;;;9.21;66.30;102513.56;5076002;28;45568;-59
2022/02/08 09:04:15;;;;;;;;;13.25;12.00;;;;;9.23;66.35;102511.72;5075617;28;46312;-60
2022/02/08 09:06:40;;;;;;;;;15.00;12.25;;;;;9.26;65.97;102527.28;5075319;28;45353;-60
2022/02/08 09:09:12;;;;;;;;;16.75;14.00;;;;;9.29;66.22;102523.66;5075960;28;45457;-60
2022/02/08 09:14:13;;;;;;;;;13.00;11.00;;;;;9.32;66.20;102521.72;5075966;28;45377;-60
2022/02/08 09:29:52;;;;;;;;;20.00;17.75;;;;;9.46;66.30;102521.00;5082610;27;45390;-59
2022/02/08 09:32:21;;;;;;;;;27.25;26.00;;;;;9.47;66.25;102517.47;5077927;27;45298;-60
2022/02/08 09:34:47;;;;;;;;;24.75;19.00;;;;;9.48;66.34;102515.69;5077766;27;46256;-60
2022/02/08 09:37:15;;;;;;;;;24.50;20.25;;;;;9.52;66.05;102514.63;5096352;27;45374;-60
2022/02/08 09:39:40;;;;;;;;;19.25;15.00;;;;;9.53;66.09;102513.69;5096098;27;45462;-60
2022/02/08 09:42:07;;;;;;;;;21.75;15.75;;;;;9.53;66.46;102521.56;5098064;27;45481;-61
2022/02/08 09:44:33;;;;;;;;;17.25;14.75;;;;;9.55;65.89;102517.06;5100062;27;45595;-60
2022/02/08 09:47:00;;;;;;;;;17.50;14.25;;;;;9.58;66.18;102521.31;5081111;27;45533;-60
2022/02/08 09:49:25;;;;;;;;;20.75;16.50;;;;;9.58;66.09;102522.13;5097859;27;45290;-60
2022/02/08 09:51:51;;;;;;;;;18.50;16.00;;;;;9.60;66.23;102520.28;5080975;27;45546;-60
2022/02/08 09:54:19;;;;;;;;;14.00;14.00;;;;;9.64;66.08;102519.19;5099038;27;47168;-60
2022/02/08 09:56:45;;;;;;;;;18.25;14.25;;;;;9.64;65.93;102513.94;5098997;27;45335;-60
2022/02/08 09:59:10;;;;;;;;;18.00;15.00;;;;;9.65;66.21;102510.41;5098815;27;45493;-60
2022/02/08 10:01:37;;;;;;;;;21.25;17.50;;;;;9.67;66.16;102506.84;5097885;27;68080;-60
2022/02/08 10:04:03;;;;;;;;;19.00;16.50;;;;;9.69;66.20;102512.84;5079402;27;45408;-60
2022/02/08 10:06:29;;;;;;;;;22.50;18.00;;;;;9.72;65.85;102507.44;5098554;27;45292;-60
2022/02/08 10:09:05;;;;;;;;;18.00;14.50;;;;;9.74;66.20;102511.69;5098620;27;45245;-60
2022/02/08 10:11:41;;;;;;;;;15.00;14.50;;;;;9.78;65.90;102509.75;5098893;27;45306;-59
2022/02/08 10:22:47;;;;;;;;;16.50;15.00;;;;;9.89;65.74;102510.03;5086163;27;45442;-60
2022/02/08 10:26:01;;;;;;;;;18.00;15.00;;;;;9.92;66.15;102512.50;5098859;27;47036;-60
2022/02/08 10:28:10;;;;;;;;;13.75;12.75;;;;;9.95;66.04;102508.84;5087691;27;45827;-60
2022/02/08 10:38:40;;;;;;;;;22.50;17.50;;;;;10.07;65.67;102523.06;5098881;27;45886;-60
2022/02/08 10:41:12;;;;;;;;;18.50;15.00;;;;;10.10;65.86;102520.28;5098574;27;45370;-60
2022/02/08 10:43:38;;;;;;;;;16.25;12.75;;;;;10.15;65.71;102520.88;5098736;27;45504;-60
2022/02/08 10:46:04;;;;;;;;;16.75;14.25;;;;;10.18;65.97;102525.13;5080207;27;46182;-60
2022/02/08 10:48:29;;;;;;;;;18.75;16.50;;;;;10.21;65.90;102519.72;5098243;27;46193;-60
2022/02/08 10:50:57;;;;;;;;;18.75;17.50;;;;;10.23;65.88;102518.69;5097420;27;64925;-60
2022/02/08 10:53:26;;;;;;;;;15.50;15.00;;;;;10.28;65.87;102521.06;5063224;27;45551;-60
2022/02/08 10:56:08;;;;;;;;;23.00;16.00;;;;;10.31;65.67;102525.28;5097646;27;45453;-61
2022/02/08 10:58:41;;;;;;;;;19.00;18.00;;;;;10.37;65.39;102517.06;5098490;27;45936;-60
2022/02/08 11:01:13;;;;;;;;;21.00;20.25;;;;;10.40;65.51;102516.94;5097166;27;45591;-61
2022/02/08 11:03:51;;;;;;;;;19.75;16.00;;;;;10.43;65.72;102518.53;5097431;27;45199;-59
2022/02/08 11:06:23;;;;;;;;;19.00;16.75;;;;;10.47;65.63;102514.78;5097223;27;46240;-61
2022/02/08 11:17:10;;;;;;;;;20.25;17.00;;;;;10.65;65.57;102507.63;5098080;27;45809;-61
2022/02/08 11:20:07;;;;;;;;;19.50;15.75;;;;;10.71;65.17;102507.28;5098185;27;45766;-59
2022/02/08 11:22:55;;;;;;;;;16.75;15.75;;;;;10.77;65.30;102508.75;5079981;27;45204;-60
2022/02/08 11:25:25;;;;;;;;;16.00;13.75;;;;;10.80;65.35;102490.16;5098223;27;45296;-60
2022/02/08 11:27:57;;;;;;;;;17.75;14.00;;;;;10.87;65.03;102491.47;5098052;27;46068;-60
2022/02/08 11:30:41;;;;;;;;;15.25;13.25;;;;;10.92;65.11;102480.69;5078671;27;45393;-61
2022/02/08 11:47:26;;;;;;;;;15.75;13.00;;;;;11.17;64.27;102466.06;5097849;27;45299;-60
2022/02/08 12:00:13;;;;;;;;;13.25;12.25;;;;;11.32;63.89;102454.63;5079292;27;46173;-60
2022/02/08 12:02:48;;;;;;;;;13.00;11.75;;;;;11.35;64.34;102451.81;5096295;27;45398;-61
2022/02/08 12:05:35;;;;;;;;;17.50;14.00;;;;;11.38;64.10;102438.47;5078881;27;45363;-60
2022/02/08 12:08:04;;;;;;;;;24.00;15.00;;;;;11.40;63.79;102438.34;5097202;27;45316;-60
2022/02/08 12:10:40;;;;;;;;;17.00;14.25;;;;;11.42;63.77;102432.06;5097306;27;46087;-60
2022/02/08 12:13:21;;;;;;;;;16.25;13.75;;;;;11.43;64.05;102423.22;5097191;27;45386;-60
2022/02/08 12:33:03;;;;;;;;;15.50;13.25;;;;;11.62;63.37;102411.56;5076639;28;45278;-60
2022/02/08 13:03:38;;;;;;;;;12.50;12.00;;;;;11.77;62.87;102380.75;5076123;28;45427;-60
2022/02/08 13:18:29;;;;;;;;;17.25;14.25;;;;;11.83;62.82;102369.84;5078437;28;45403;-61
2022/02/08 14:17:12;;;;;;;;;21.75;15.00;;;;;11.97;62.94;102344.38;5119787;27;45456;-61
2022/02/08 14:19:37;;;;;;;;;20.75;16.00;;;;;11.97;62.88;102347.88;5118785;27;45366;-61
2022/02/08 14:22:19;;;;;;;;;22.50;16.50;;;;;11.96;62.61;102340.91;5100601;27;46257;-61
2022/02/08 14:25:19;;;;;;;;;14.00;12.75;;;;;11.96;62.65;102343.53;5118628;27;45401;-60
2022/02/08 14:30:24;;;;;;;;;30.50;26.75;;;;;11.93;62.63;102333.19;5119241;27;45588;-61
2022/02/08 14:33:13;;;;;;;;;28.50;27.00;;;;;11.96;62.77;102332.13;5119401;27;46063;-59
2022/02/08 14:57:30;;;;;;;;;25.25;20.75;;;;;12.01;63.40;102322.19;5119429;27;45394;-61
2022/02/08 14:58:52;;;;;;;;;17.25;14.75;;;;;12.06;63.13;102327.16;5118863;27;46117;-60
2022/02/08 15:06:02;;;;;;;;;18.75;13.75;;;;;12.09;62.69;102324.31;5118626;27;45464;-58
2022/02/08 15:08:30;;;;;;;;;14.00;11.50;;;;;12.10;62.39;102318.94;5100090;27;45287;-60
2022/02/08 15:11:03;;;;;;;;;13.25;12.00;;;;;12.11;62.77;102318.00;5099997;27;45429;-60
2022/02/08 15:13:30;;;;;;;;;15.25;12.00;;;;;12.14;62.45;102324.88;5119113;27;45473;-61
2022/02/08 15:16:37;;;;;;;;;9.25;7.50;;;;;12.16;62.25;102334.34;5117787;27;46364;-61
2022/02/08 15:18:44;;;;;;;;;11.00;8.00;;;;;12.19;62.06;102327.19;5107301;27;45426;-60
2022/02/08 15:21:13;;;;;;;;;10.50;7.50;;;;;12.22;62.00;102329.63;5118588;27;47007;-59
2022/02/08 15:23:39;;;;;;;;;8.00;7.00;;;;;12.23;61.63;102328.66;5118905;27;45503;-61
2022/02/08 15:26:05;;;;;;;;;9.25;7.50;;;;;12.24;61.48;102328.53;5118421;27;47012;-60
2022/02/08 15:28:30;;;;;;;;;7.00;6.25;;;;;12.27;61.36;102324.88;5118477;27;45291;-60
2022/02/08 15:30:56;;;;;;;;;7.75;6.25;;;;;12.28;61.12;102334.47;5117387;27;63794;-61
2022/02/08 15:33:22;;;;;;;;;6.00;6.00;;;;;12.28;61.21;102334.47;5099750;27;45494;-61
2022/02/08 15:35:47;;;;;;;;;7.75;7.00;;;;;12.27;61.24;102330.97;5118500;27;45545;-60
2022/02/08 15:38:13;;;;;;;;;7.00;7.00;;;;;12.29;61.02;102334.34;5117379;27;71334;-61
2022/02/08 15:40:38;;;;;;;;;7.25;6.00;;;;;12.29;61.35;102336.16;5118110;27;45348;-61
2022/02/08 15:43:03;;;;;;;;;7.00;7.00;;;;;12.29;60.84;102328.25;5117415;27;70555;-61
2022/02/08 15:45:37;;;;;;;;;7.75;6.25;;;;;12.29;60.47;102328.25;5117985;27;46832;-60
2022/02/08 15:48:02;;;;;;;;;7.75;6.75;;;;;12.28;60.70;102332.66;5118223;27;45876;-60
2022/02/08 15:50:51;;;;;;;;;7.25;7.00;;;;;12.27;60.92;102320.44;5118136;27;45394;-61
2022/02/08 16:08:44;;;;;;;;;9.50;8.50;;;;;12.25;61.02;102317.06;5108868;27;45368;-60
2022/02/08 16:11:35;;;;;;;;;10.25;9.75;;;;;12.24;61.06;102312.72;5097312;27;45273;-61
2022/02/08 16:14:04;;;;;;;;;7.75;6.00;;;;;12.24;61.25;102314.53;5097002;27;45475;-61
2022/02/08 16:19:21;;;;;;;;;11.00;8.75;;;;;12.22;61.18;102312.00;5097156;27;45448;-61
2022/02/08 16:27:16;;;;;;;;;11.00;9.00;;;;;12.17;61.40;102314.94;5096813;27;45300;-61
2022/02/08 16:30:18;;;;;;;;;11.25;9.00;;;;;12.18;61.49;102323.72;5096568;27;45488;-61
2022/02/08 16:54:19;;;;;;;;;14.00;10.75;;;;;12.03;61.56;102328.19;5096568;27;45320;-61
2022/02/08 16:59:16;;;;;;;;;11.25;11.00;;;;;11.97;61.89;102329.41;5096370;27;46036;-60
2022/02/08 17:01:42;;;;;;;;;10.25;10.25;;;;;11.96;62.28;102332.13;5095411;27;45896;-60
2022/02/08 17:04:09;;;;;;;;;13.25;10.75;;;;;11.94;62.27;102340.16;5096717;27;45362;-61
2022/02/08 17:06:34;;;;;;;;;12.25;11.50;;;;;11.90;62.50;102336.03;5096205;27;45318;-60
2022/02/08 17:09:13;;;;;;;;;12.75;12.50;;;;;11.86;62.58;102343.31;5096419;27;45821;-62
2022/02/08 17:17:07;;;;;;;;;15.50;12.25;;;;;11.80;62.60;102348.97;5096559;27;45466;-62
2022/02/08 17:46:39;;;;;;;;;33.50;30.00;;;;;11.59;63.64;102340.66;5095518;27;45475;-60
2022/02/08 17:49:08;;;;;;;;;27.50;19.25;;;;;11.58;63.62;102345.06;5076949;27;45541;-60
2022/02/08 17:51:33;;;;;;;;;21.00;21.00;;;;;11.57;63.18;102340.75;5095314;27;46246;-60
2022/02/08 17:53:59;;;;;;;;;24.75;22.75;;;;;11.55;63.31;102352.34;5094303;27;70512;-60
2022/02/08 17:56:24;;;;;;;;;20.00;18.00;;;;;11.52;63.43;102342.00;5096076;27;45657;-61
2022/02/08 17:58:51;;;;;;;;;19.25;14.00;;;;;11.51;63.86;102340.31;5095358;27;57248;-60
2022/02/08 18:01:20;;;;;;;;;14.75;13.50;;;;;11.49;63.65;102347.44;5095743;27;45378;-60
2022/02/08 18:03:57;;;;;;;;;15.50;15.00;;;;;11.47;63.40;102341.44;5099022;27;45840;-60